createdAt,value
2022-12-24T00:00:11.351Z,96970.53
2022-12-24T00:02:38.233Z,96974.94
2022-12-24T00:05:05.559Z,96967.56
2022-12-24T00:07:32.238Z,96955.56
2022-12-24T00:09:58.906Z,96964.19
2022-12-24T00:12:25.540Z,96974.94
2022-12-24T00:14:52.238Z,96980.13
2022-12-24T00:17:18.909Z,96988.09
2022-12-24T00:19:45.568Z,96975.38
2022-12-24T00:22:12.220Z,96958.09
2022-12-24T00:24:38.930Z,96948.59
2022-12-24T00:27:05.584Z,96943.69
2022-12-24T00:29:32.697Z,96945.84
2022-12-24T00:31:59.449Z,96952.31
2022-12-24T00:34:26.104Z,96953.09
2022-12-24T00:36:52.750Z,96957.56
2022-12-24T00:39:19.582Z,96973.78
2022-12-24T00:41:46.278Z,96987.50
2022-12-24T00:44:12.953Z,96993.59
2022-12-24T00:46:40.582Z,96966.56
2022-12-24T00:49:07.577Z,96969.06
2022-12-24T00:51:35.122Z,96952.75
2022-12-24T00:54:01.838Z,96941.69
2022-12-24T00:56:28.510Z,96942.88
2022-12-24T00:58:55.188Z,96967.97
2022-12-24T01:01:22.327Z,96969.81
2022-12-24T01:03:49.096Z,96984.63
2022-12-24T01:06:17.500Z,97001.09
2022-12-24T01:08:44.233Z,97006.44
2022-12-24T01:11:11.005Z,96994.28
2022-12-24T01:13:37.854Z,96982.31
2022-12-24T01:16:11.994Z,96968.09
2022-12-24T01:18:38.624Z,96987.03
2022-12-24T01:21:05.344Z,96982.19
2022-12-24T01:23:32.403Z,96989.06
2022-12-24T01:26:02.491Z,96995.78
2022-12-24T01:28:29.239Z,96977.34
2022-12-24T01:30:55.910Z,96983.97
2022-12-24T01:33:22.756Z,96996.50
2022-12-24T01:35:49.419Z,96998.31
2022-12-24T01:38:16.135Z,96993.63
2022-12-24T01:40:42.776Z,97010.13
2022-12-24T01:43:29.562Z,97000.97
2022-12-24T01:45:56.766Z,97020.50
2022-12-24T01:48:42.824Z,97025.03
2022-12-24T01:51:35.893Z,97046.25
2022-12-24T01:54:30.454Z,97039.97
2022-12-24T01:57:05.339Z,97028.69
2022-12-24T01:59:32.331Z,97019.22
2022-12-24T02:01:59.156Z,97012.97
2022-12-24T02:04:38.137Z,97008.69
2022-12-24T02:07:04.983Z,97007.22
2022-12-24T02:09:32.936Z,97019.28
2022-12-24T02:12:03.017Z,97035.03
2022-12-24T02:14:29.646Z,97058.25
2022-12-24T02:17:05.539Z,97036.41
2022-12-24T02:19:35.027Z,97041.03
2022-12-24T02:22:08.199Z,97027.97
2022-12-24T02:24:41.018Z,97021.59
2022-12-24T02:27:21.555Z,97025.91
2022-12-24T02:29:56.576Z,97031.28
2022-12-24T02:32:24.636Z,97011.34
2022-12-24T02:34:57.341Z,97015.75
2022-12-24T02:37:54.946Z,97010.50
2022-12-24T02:40:28.373Z,97014.66
2022-12-24T02:42:58.453Z,97024.09
2022-12-24T02:45:32.259Z,97021.59
2022-12-24T02:47:58.923Z,97020.41
2022-12-24T02:50:25.548Z,97022.06
2022-12-24T02:52:52.159Z,97027.56
2022-12-24T02:55:45.394Z,97029.91
2022-12-24T02:58:29.852Z,97018.91
2022-12-24T03:01:23.897Z,97004.81
2022-12-24T03:04:03.203Z,96992.06
2022-12-24T03:06:32.864Z,97010.69
2022-12-24T03:09:25.222Z,97018.81
2022-12-24T03:12:16.674Z,97039.72
2022-12-24T03:14:43.316Z,97019.34
2022-12-24T03:17:10.014Z,97029.31
2022-12-24T03:19:36.731Z,97033.81
2022-12-24T03:22:04.377Z,97028.94
2022-12-24T03:24:31.061Z,97009.88
2022-12-24T03:26:57.681Z,97005.44
2022-12-24T03:29:24.338Z,97002.63
2022-12-24T03:31:51.948Z,97010.97
2022-12-24T03:34:19.021Z,97012.81
2022-12-24T03:36:46.259Z,97013.63
2022-12-24T03:39:12.879Z,97007.31
2022-12-24T03:41:39.765Z,96998.94
2022-12-24T03:44:06.417Z,96999.56
2022-12-24T03:46:33.061Z,97003.91
2022-12-24T03:48:59.742Z,96990.31
2022-12-24T03:51:26.440Z,96988.16
2022-12-24T03:53:53.353Z,97002.38
2022-12-24T03:56:20.259Z,97012.19
2022-12-24T03:58:46.919Z,97008.34
2022-12-24T04:01:13.710Z,97009.50
2022-12-24T04:03:40.468Z,96991.41
2022-12-24T04:06:08.890Z,96980.53
2022-12-24T04:08:35.865Z,96968.31
2022-12-24T04:11:09.856Z,96976.28
2022-12-24T04:13:36.853Z,96982.31
2022-12-24T04:16:06.167Z,96973.25
2022-12-24T04:18:32.875Z,96961.41
2022-12-24T04:20:59.711Z,96959.09
2022-12-24T04:23:26.428Z,96953.91
2022-12-24T04:25:53.068Z,96953.56
2022-12-24T04:28:19.708Z,96965.69
2022-12-24T04:30:46.586Z,96977.41
2022-12-24T04:33:13.283Z,96982.31
2022-12-24T04:35:42.204Z,96985.16
2022-12-24T04:38:09.303Z,96999.47
2022-12-24T04:40:36.274Z,96993.31
2022-12-24T04:43:02.902Z,96996.50
2022-12-24T04:45:29.592Z,96994.50
2022-12-24T04:47:56.269Z,96988.06
2022-12-24T04:50:22.925Z,96989.28
2022-12-24T04:52:50.128Z,96986.09
2022-12-24T04:55:16.763Z,96973.59
2022-12-24T04:57:46.189Z,96969.78
2022-12-24T05:00:15.078Z,96947.94
2022-12-24T05:02:41.824Z,96954.31
2022-12-24T05:05:08.823Z,96959.16
2022-12-24T05:07:35.476Z,96954.56
2022-12-24T05:10:02.189Z,96963.91
2022-12-24T05:12:28.824Z,96969.88
2022-12-24T05:14:55.474Z,96964.13
2022-12-24T05:17:22.680Z,96960.94
2022-12-24T05:19:49.397Z,96971.41
2022-12-24T05:22:16.064Z,96977.88
2022-12-24T05:24:42.739Z,96989.28
2022-12-24T05:27:09.395Z,96990.25
2022-12-24T05:29:36.169Z,96996.31
2022-12-24T05:32:02.783Z,96990.63
2022-12-24T05:34:29.437Z,96988.13
2022-12-24T05:36:56.317Z,96995.97
2022-12-24T05:39:22.949Z,97003.81
2022-12-24T05:41:49.579Z,97010.19
2022-12-24T05:44:16.355Z,97009.97
2022-12-24T05:46:43.711Z,97012.00
2022-12-24T05:49:10.448Z,96996.16
2022-12-24T05:51:37.162Z,97002.53
2022-12-24T05:54:04.763Z,97008.75
2022-12-24T05:56:31.433Z,97009.94
2022-12-24T05:58:58.278Z,97018.63
2022-12-24T06:01:25.009Z,97024.59
2022-12-24T06:03:52.107Z,97023.13
2022-12-24T06:06:21.075Z,97027.84
2022-12-24T06:08:48.434Z,97019.13
2022-12-24T06:11:16.794Z,97024.47
2022-12-24T06:13:43.725Z,97042.53
2022-12-24T06:16:15.284Z,97045.78
2022-12-24T06:18:42.130Z,97039.78
2022-12-24T06:21:08.935Z,97032.97
2022-12-24T06:23:36.668Z,97027.16
2022-12-24T06:26:03.453Z,97023.97
2022-12-24T06:28:31.292Z,97033.81
2022-12-24T06:31:02.583Z,97029.97
2022-12-24T06:33:30.773Z,97040.00
2022-12-24T06:35:57.401Z,97042.13
2022-12-24T06:38:24.042Z,97045.50
2022-12-24T06:40:50.715Z,97038.28
2022-12-24T06:43:17.359Z,97039.34
2022-12-24T06:45:47.285Z,97056.06
2022-12-24T06:48:14.327Z,97068.97
2022-12-24T06:50:41.031Z,97078.13
2022-12-24T06:53:07.643Z,97075.72
2022-12-24T06:55:34.818Z,97064.53
2022-12-24T06:58:01.475Z,97055.50
2022-12-24T07:00:28.195Z,97045.44
2022-12-24T07:02:54.908Z,97048.78
2022-12-24T07:05:21.561Z,97031.91
2022-12-24T07:07:48.215Z,97021.94
2022-12-24T07:10:16.322Z,97021.75
2022-12-24T07:12:43.148Z,97025.13
2022-12-24T07:15:10.354Z,97025.78
2022-12-24T07:17:37.046Z,97032.56
2022-12-24T07:20:04.658Z,97054.47
2022-12-24T07:22:31.408Z,97060.03
2022-12-24T07:24:58.027Z,97058.41
2022-12-24T07:27:24.757Z,97059.25
2022-12-24T07:29:51.411Z,97056.75
2022-12-24T07:32:18.062Z,97059.00
2022-12-24T07:34:45.059Z,97063.22
2022-12-24T07:37:11.925Z,97053.22
2022-12-24T07:39:38.945Z,97055.88
2022-12-24T07:42:05.800Z,97040.66
2022-12-24T07:44:32.442Z,97039.81
2022-12-24T07:46:59.142Z,97025.59
2022-12-24T07:49:26.092Z,97018.56
2022-12-24T07:51:52.737Z,97021.53
2022-12-24T07:54:19.709Z,97028.59
2022-12-24T07:56:46.737Z,97034.69
2022-12-24T07:59:13.474Z,97038.72
2022-12-24T08:01:40.609Z,97041.41
2022-12-24T08:04:07.443Z,97047.22
2022-12-24T08:06:34.335Z,97042.31
2022-12-24T08:09:00.991Z,97034.28
2022-12-24T08:11:27.622Z,97036.09
2022-12-24T08:13:54.284Z,97037.88
2022-12-24T08:16:21.009Z,97036.50
2022-12-24T08:18:47.675Z,97050.72
2022-12-24T08:21:14.296Z,97062.47
2022-12-24T08:23:41.237Z,97072.53
2022-12-24T08:26:08.590Z,97064.75
2022-12-24T08:28:35.213Z,97072.94
2022-12-24T08:31:01.849Z,97077.63
2022-12-24T08:33:28.465Z,97081.91
2022-12-24T08:35:55.718Z,97081.03
2022-12-24T08:38:22.441Z,97084.22
2022-12-24T08:40:49.079Z,97085.72
2022-12-24T08:43:18.939Z,97081.06
2022-12-24T08:45:46.559Z,97086.47
2022-12-24T08:48:13.262Z,97082.97
2022-12-24T08:50:40.145Z,97069.78
2022-12-24T08:53:07.053Z,97078.78
2022-12-24T08:55:33.703Z,97086.31
2022-12-24T08:58:00.512Z,97086.59
2022-12-24T09:00:27.408Z,97084.25
2022-12-24T09:02:54.132Z,97084.72
2022-12-24T09:05:20.823Z,97081.53
2022-12-24T09:07:47.486Z,97085.16
2022-12-24T09:10:14.140Z,97081.25
2022-12-24T09:12:40.769Z,97079.91
2022-12-24T09:15:08.014Z,97084.25
2022-12-24T09:17:35.788Z,97086.28
2022-12-24T09:20:03.324Z,97084.91
2022-12-24T09:22:29.944Z,97078.53
2022-12-24T09:24:56.626Z,97071.78
2022-12-24T09:27:23.254Z,97065.59
2022-12-24T09:29:49.927Z,97079.38
2022-12-24T09:32:16.828Z,97073.00
2022-12-24T09:34:43.480Z,97070.81
2022-12-24T09:37:10.127Z,97072.31
2022-12-24T09:39:36.776Z,97073.66
2022-12-24T09:42:26.354Z,97080.81
2022-12-24T09:45:01.060Z,97068.56
2022-12-24T09:47:32.306Z,97071.97
2022-12-24T09:50:00.136Z,97079.69
2022-12-24T09:52:35.713Z,97087.53
2022-12-24T09:55:07.687Z,97073.13
2022-12-24T09:57:37.858Z,97067.94
2022-12-24T10:00:05.564Z,97078.03
2022-12-24T10:02:32.355Z,97073.31
2022-12-24T10:04:59.100Z,97071.28
2022-12-24T10:07:37.460Z,97078.13
2022-12-24T10:10:09.910Z,97088.84
2022-12-24T10:12:47.712Z,97087.50
2022-12-24T10:15:29.243Z,97080.22
2022-12-24T10:18:08.071Z,97088.47
2022-12-24T10:20:37.587Z,97089.31
2022-12-24T10:23:06.440Z,97104.88
2022-12-24T10:25:42.173Z,97106.59
2022-12-24T10:28:17.451Z,97080.56
2022-12-24T10:30:46.800Z,97082.38
2022-12-24T10:33:18.055Z,97075.81
2022-12-24T10:35:46.691Z,97072.81
2022-12-24T10:38:13.319Z,97068.84
2022-12-24T10:40:40.729Z,97057.66
2022-12-24T10:43:18.171Z,97070.47
2022-12-24T10:45:50.220Z,97069.72
2022-12-24T10:48:27.295Z,97072.63
2022-12-24T10:51:00.343Z,97062.69
2022-12-24T10:53:37.055Z,97058.78
2022-12-24T10:56:05.529Z,97064.06
2022-12-24T10:58:32.188Z,97061.44
2022-12-24T11:00:58.903Z,97065.16
2022-12-24T11:03:35.417Z,97072.75
2022-12-24T11:06:10.087Z,97072.56
2022-12-24T11:08:38.216Z,97072.91
2022-12-24T11:11:07.066Z,97078.25
2022-12-24T11:13:58.248Z,97062.88
2022-12-24T11:16:32.725Z,97064.25
2022-12-24T11:19:04.341Z,97067.41
2022-12-24T11:21:39.293Z,97059.84
2022-12-24T11:24:11.922Z,97047.44
2022-12-24T11:26:38.583Z,97047.94
2022-12-24T11:29:05.053Z,97029.91
2022-12-24T11:31:31.743Z,97031.28
2022-12-24T11:33:58.463Z,97029.16
2022-12-24T11:36:25.100Z,97034.13
2022-12-24T11:38:57.912Z,97032.88
2022-12-24T11:41:25.158Z,97028.13
2022-12-24T11:43:52.524Z,97027.38
2022-12-24T11:46:34.872Z,97019.41
2022-12-24T11:49:17.465Z,97030.06
2022-12-24T11:52:09.725Z,97020.47
2022-12-24T11:55:37.940Z,97018.88
2022-12-24T11:58:23.176Z,97025.56
2022-12-24T12:00:50.828Z,97021.03
2022-12-24T12:03:58.308Z,97017.78
2022-12-24T12:06:39.001Z,97032.88
2022-12-24T12:09:24.747Z,97038.16
2022-12-24T12:12:14.591Z,97037.59
2022-12-24T12:14:45.096Z,97047.09
2022-12-24T12:17:30.305Z,97041.47
2022-12-24T12:20:07.535Z,97035.28
2022-12-24T12:23:01.433Z,97033.63
2022-12-24T12:25:34.199Z,97028.75
2022-12-24T12:28:00.993Z,97031.06
2022-12-24T12:30:27.663Z,97028.00
2022-12-24T12:32:57.466Z,97021.25
2022-12-24T12:35:40.878Z,97013.22
2022-12-24T12:38:25.363Z,97007.53
2022-12-24T12:41:13.655Z,96994.59
2022-12-24T12:44:02.895Z,96989.31
2022-12-24T12:46:35.469Z,97000.22
2022-12-24T12:49:25.000Z,96995.53
2022-12-24T12:51:55.808Z,96997.75
2022-12-24T12:54:32.530Z,96995.31
2022-12-24T12:57:03.471Z,97002.72
2022-12-24T12:59:32.151Z,97000.03
2022-12-24T13:02:41.802Z,96996.59
2022-12-24T13:05:20.200Z,96992.06
2022-12-24T13:08:01.903Z,96989.19
2022-12-24T13:10:41.443Z,96994.75
2022-12-24T13:13:32.645Z,96994.66
2022-12-24T13:16:38.033Z,96996.34
2022-12-24T13:19:34.304Z,96992.47
2022-12-24T13:22:04.408Z,96997.19
2022-12-24T13:24:31.385Z,96988.31
2022-12-24T13:27:18.127Z,96992.84
2022-12-24T13:29:52.527Z,96998.31
2022-12-24T13:32:22.084Z,96998.56
2022-12-24T13:34:56.141Z,97001.88
2022-12-24T13:37:23.721Z,96995.34
2022-12-24T13:40:06.348Z,97000.59
2022-12-24T13:43:01.062Z,97011.16
2022-12-24T13:45:31.948Z,96997.59
2022-12-24T13:48:08.265Z,96993.06
2022-12-24T13:50:37.867Z,96990.38
2022-12-24T13:53:05.486Z,96994.56
2022-12-24T13:55:33.052Z,96996.97
2022-12-24T13:58:01.724Z,96998.19
2022-12-24T14:00:39.408Z,96999.75
2022-12-24T14:03:08.023Z,97002.19
2022-12-24T14:06:05.516Z,96994.75
2022-12-24T14:08:35.333Z,96999.88
2022-12-24T14:11:12.275Z,96997.94
2022-12-24T14:13:38.948Z,96993.38
2022-12-24T14:16:08.563Z,97003.38
2022-12-24T14:18:38.538Z,96991.09
2022-12-24T14:21:05.614Z,96998.13
2022-12-24T14:23:56.040Z,96998.13
2022-12-24T14:26:25.655Z,96999.88
2022-12-24T14:29:08.297Z,96996.16
2022-12-24T14:31:35.926Z,96987.56
2022-12-24T14:34:12.191Z,96992.66
2022-12-24T14:36:39.045Z,96999.03
2022-12-24T14:39:09.082Z,96995.53
2022-12-24T14:41:53.878Z,96995.88
2022-12-24T14:44:49.553Z,96998.03
2022-12-24T14:47:28.053Z,97000.91
2022-12-24T14:50:32.648Z,97000.72
2022-12-24T14:53:09.396Z,97007.81
2022-12-24T14:55:50.826Z,97010.13
2022-12-24T14:58:29.971Z,97011.31
2022-12-24T15:01:02.336Z,96999.50
2022-12-24T15:03:31.023Z,96997.28
2022-12-24T15:06:05.206Z,97005.03
2022-12-24T15:08:45.251Z,97005.03
2022-12-24T15:11:17.121Z,97012.91
2022-12-24T15:13:45.453Z,97001.47
2022-12-24T15:16:13.657Z,97003.31
2022-12-24T15:18:49.965Z,97008.56
2022-12-24T15:21:20.591Z,97014.94
2022-12-24T15:23:50.934Z,97022.56
2022-12-24T15:26:30.096Z,97018.00
2022-12-24T15:29:02.807Z,97015.50
2022-12-24T15:31:32.218Z,97022.44
2022-12-24T15:33:59.046Z,97014.38
2022-12-24T15:36:35.819Z,97021.78
2022-12-24T15:39:07.616Z,97023.84
2022-12-24T15:41:41.764Z,97023.72
2022-12-24T15:44:08.459Z,97031.13
2022-12-24T15:46:35.168Z,97014.72
2022-12-24T15:49:01.894Z,97017.41
2022-12-24T15:51:33.933Z,97034.53
2022-12-24T15:54:06.686Z,97023.78
2022-12-24T15:56:44.333Z,97022.31
2022-12-24T15:59:17.914Z,97034.06
2022-12-24T16:01:44.811Z,97039.13
2022-12-24T16:04:31.683Z,97038.47
2022-12-24T16:06:59.498Z,97039.47
2022-12-24T16:09:35.085Z,97039.31
2022-12-24T16:12:04.497Z,97047.34
2022-12-24T16:14:31.632Z,97048.47
2022-12-24T16:16:58.285Z,97044.28
2022-12-24T16:19:37.689Z,97035.59
2022-12-24T16:24:53.642Z,97044.53
2022-12-24T16:27:20.313Z,97048.69
2022-12-24T16:29:49.686Z,97051.00
2022-12-24T16:32:33.020Z,97052.28
2022-12-24T16:35:01.707Z,97050.69
2022-12-24T16:37:28.338Z,97051.88
2022-12-24T16:39:54.988Z,97052.22
2022-12-24T16:42:21.623Z,97054.25
2022-12-24T16:44:48.330Z,97058.94
2022-12-24T16:47:19.924Z,97058.47
2022-12-24T16:49:46.628Z,97045.63
2022-12-24T16:52:29.095Z,97054.50
2022-12-24T16:54:56.303Z,97052.16
2022-12-24T16:57:23.360Z,97052.88
2022-12-24T16:59:50.162Z,97041.69
2022-12-24T17:02:18.325Z,97045.19
2022-12-24T17:04:45.098Z,97038.50
2022-12-24T17:07:12.332Z,97048.47
2022-12-24T17:09:38.988Z,97046.78
2022-12-24T17:12:05.929Z,97051.31
2022-12-24T17:14:32.627Z,97050.66
2022-12-24T17:16:59.280Z,97053.06
2022-12-24T17:19:25.997Z,97057.09
2022-12-24T17:21:52.671Z,97050.97
2022-12-24T17:24:19.381Z,97049.00
2022-12-24T17:26:46.076Z,97045.38
2022-12-24T17:29:12.805Z,97055.25
2022-12-24T17:31:39.564Z,97061.16
2022-12-24T17:34:06.405Z,97067.41
2022-12-24T17:36:33.085Z,97070.91
2022-12-24T17:38:59.748Z,97074.56
2022-12-24T17:41:26.404Z,97075.09
2022-12-24T17:43:53.055Z,97071.09
2022-12-24T17:46:21.512Z,97070.09
2022-12-24T17:48:48.537Z,97069.63
2022-12-24T17:51:16.227Z,97079.75
2022-12-24T17:53:42.962Z,97081.13
2022-12-24T17:56:10.846Z,97083.47
2022-12-24T17:58:37.594Z,97090.03
2022-12-24T18:01:04.309Z,97073.22
2022-12-24T18:03:31.039Z,97089.91
2022-12-24T18:06:04.696Z,97080.53
2022-12-24T18:08:31.321Z,97088.78
2022-12-24T18:10:58.050Z,97078.13
2022-12-24T18:13:24.745Z,97086.34
2022-12-24T18:15:51.445Z,97088.16
2022-12-24T18:18:18.164Z,97084.31
2022-12-24T18:20:47.104Z,97083.53
2022-12-24T18:23:13.956Z,97076.50
2022-12-24T18:25:40.657Z,97071.31
2022-12-24T18:28:07.301Z,97074.00
2022-12-24T18:30:33.958Z,97082.41
2022-12-24T18:33:00.805Z,97071.94
2022-12-24T18:35:27.480Z,97075.03
2022-12-24T18:37:54.132Z,97070.03
2022-12-24T18:40:20.815Z,97060.19
2022-12-24T18:42:47.525Z,97051.03
2022-12-24T18:45:14.288Z,97063.28
2022-12-24T18:47:41.021Z,97055.81
2022-12-24T18:50:07.975Z,97055.63
2022-12-24T18:52:35.381Z,97054.56
2022-12-24T18:55:02.072Z,97051.47
2022-12-24T18:57:28.722Z,97054.97
2022-12-24T18:59:55.362Z,97066.63
2022-12-24T19:02:22.119Z,97070.72
2022-12-24T19:04:48.884Z,97081.78
2022-12-24T19:07:15.538Z,97079.81
2022-12-24T19:09:42.216Z,97094.03
2022-12-24T19:12:09.009Z,97093.69
2022-12-24T19:14:35.654Z,97109.00
2022-12-24T19:17:02.300Z,97106.13
2022-12-24T19:19:28.975Z,97103.13
2022-12-24T19:21:55.673Z,97104.31
2022-12-24T19:24:22.321Z,97097.75
2022-12-24T19:26:48.994Z,97109.31
2022-12-24T19:29:15.674Z,97099.50
2022-12-24T19:31:42.358Z,97105.72
2022-12-24T19:34:09.033Z,97110.06
2022-12-24T19:36:35.691Z,97116.72
2022-12-24T19:39:02.347Z,97116.25
2022-12-24T19:41:29.304Z,97114.28
2022-12-24T19:43:57.474Z,97115.47
2022-12-24T19:46:26.179Z,97118.25
2022-12-24T19:48:57.969Z,97110.69
2022-12-24T19:51:24.919Z,97114.19
2022-12-24T19:53:51.599Z,97113.19
2022-12-24T19:56:19.168Z,97127.28
2022-12-24T19:58:45.924Z,97122.09
2022-12-24T20:01:17.152Z,97123.78
2022-12-24T20:03:44.598Z,97108.41
2022-12-24T20:06:11.714Z,97113.06
2022-12-24T20:08:38.756Z,97108.00
2022-12-24T20:11:06.255Z,97110.88
2022-12-24T20:13:33.690Z,97097.09
2022-12-24T20:16:04.671Z,97107.38
2022-12-24T20:18:31.342Z,97104.44
2022-12-24T20:21:01.749Z,97108.47
2022-12-24T20:23:28.434Z,97105.31
2022-12-24T20:26:01.318Z,97097.13
2022-12-24T20:28:28.833Z,97095.97
2022-12-24T20:30:58.136Z,97110.00
2022-12-24T20:33:26.005Z,97108.34
2022-12-24T20:35:53.606Z,97104.84
2022-12-24T20:38:22.231Z,97109.31
2022-12-24T20:40:50.887Z,97103.13
2022-12-24T20:43:23.888Z,97106.63
2022-12-24T20:45:56.175Z,97107.97
2022-12-24T20:48:24.738Z,97103.63
2022-12-24T20:50:52.360Z,97103.63
2022-12-24T20:53:19.116Z,97105.97
2022-12-24T20:55:46.583Z,97109.81
2022-12-24T20:58:13.298Z,97123.47
2022-12-24T21:00:39.954Z,97122.47
2022-12-24T21:03:06.633Z,97118.63
2022-12-24T21:05:33.281Z,97119.19
2022-12-24T21:07:59.933Z,97114.50
2022-12-24T21:10:32.297Z,97111.72
2022-12-24T21:13:00.796Z,97109.59
2022-12-24T21:15:35.354Z,97113.66
2022-12-24T21:18:02.052Z,97119.84
2022-12-24T21:20:28.717Z,97125.69
2022-12-24T21:23:00.850Z,97124.84
2022-12-24T21:25:28.146Z,97110.31
2022-12-24T21:27:54.771Z,97113.13
2022-12-24T21:30:21.456Z,97123.50
2022-12-24T21:32:48.230Z,97120.47
2022-12-24T21:35:14.912Z,97119.81
2022-12-24T21:37:41.569Z,97131.03
2022-12-24T21:40:08.801Z,97137.84
2022-12-24T21:42:35.454Z,97136.03
2022-12-24T21:45:02.423Z,97140.22
2022-12-24T21:47:29.063Z,97142.53
2022-12-24T21:49:55.695Z,97146.50
2022-12-24T21:52:22.354Z,97155.34
2022-12-24T21:54:49.005Z,97151.38
2022-12-24T21:57:15.678Z,97153.34
2022-12-24T21:59:42.319Z,97154.34
2022-12-24T22:02:13.115Z,97150.16
2022-12-24T22:04:39.905Z,97163.03
2022-12-24T22:07:06.550Z,97166.16
2022-12-24T22:09:33.229Z,97163.19
2022-12-24T22:11:59.874Z,97162.97
2022-12-24T22:14:26.542Z,97166.34
2022-12-24T22:16:53.201Z,97174.38
2022-12-24T22:19:19.850Z,97179.72
2022-12-24T22:21:46.490Z,97169.56
2022-12-24T22:24:13.150Z,97173.47
2022-12-24T22:26:39.805Z,97166.16
2022-12-24T22:29:06.470Z,97168.34
2022-12-24T22:31:33.253Z,97173.84
2022-12-24T22:34:00.171Z,97185.06
2022-12-24T22:36:26.939Z,97185.56
2022-12-24T22:38:53.598Z,97183.56
2022-12-24T22:41:20.267Z,97179.72
2022-12-24T22:43:46.961Z,97178.19
2022-12-24T22:46:13.743Z,97176.53
2022-12-24T22:48:40.837Z,97182.22
2022-12-24T22:51:15.839Z,97177.03
2022-12-24T22:53:42.535Z,97175.50
2022-12-24T22:56:09.659Z,97183.38
2022-12-24T22:58:36.334Z,97177.34
2022-12-24T23:01:02.974Z,97169.31
2022-12-24T23:03:29.751Z,97173.84
2022-12-24T23:06:00.099Z,97179.38
2022-12-24T23:08:26.874Z,97173.53
2022-12-24T23:10:54.134Z,97170.16
2022-12-24T23:13:20.888Z,97170.53
2022-12-24T23:15:47.590Z,97163.84
2022-12-24T23:18:14.297Z,97175.38
2022-12-24T23:20:42.076Z,97160.34
2022-12-24T23:23:09.121Z,97148.25
2022-12-24T23:25:35.877Z,97155.47
2022-12-24T23:28:02.538Z,97163.84
2022-12-24T23:30:29.198Z,97152.31
2022-12-24T23:32:55.864Z,97148.75
2022-12-24T23:35:22.493Z,97150.28
2022-12-24T23:37:49.140Z,97141.59
2022-12-24T23:40:15.912Z,97151.28
2022-12-24T23:42:42.542Z,97152.44
2022-12-24T23:45:09.430Z,97149.09
2022-12-24T23:47:36.100Z,97139.59
2022-12-24T23:50:04.862Z,97141.91
2022-12-24T23:52:31.573Z,97135.91
2022-12-24T23:54:58.249Z,97141.44
2022-12-24T23:57:24.926Z,97149.28
2022-12-24T23:59:51.624Z,97147.63
